Time;durP1;ratioP1;P1;durP2;ratioP2;P2;SDS_P1;SDS_P2;PMS_P1;PMS_P2;Temp;Humidity;BMP_temperature;BMP_pressure;BME280_temperature;BME280_humidity;BME280_pressure;Samples;Min_cycle;Max_cycle;Signal;HPM_P1;HPM_P2
2024/02/17 00:00:30;;;;;;;13.55;7.93;;;11.50;99.90;;;;;;5088238;28;20115;-87
2024/02/17 00:02:56;;;;;;;16.35;8.40;;;11.10;99.90;;;;;;5086544;28;20020;-87
2024/02/17 00:05:21;;;;;;;12.90;7.25;;;11.10;99.90;;;;;;5091405;28;20031;-88
2024/02/17 00:07:47;;;;;;;20.02;8.02;;;11.10;99.90;;;;;;5090212;28;20107;-88
2024/02/17 00:10:16;;;;;;;18.27;7.30;;;11.00;99.90;;;;;;5090438;28;20085;-87
2024/02/17 00:12:44;;;;;;;16.95;7.20;;;11.00;99.90;;;;;;5092793;28;20028;-88
2024/02/17 00:15:10;;;;;;;13.65;7.47;;;11.50;99.90;;;;;;5091870;28;20030;-88
2024/02/17 00:17:36;;;;;;;11.98;7.47;;;11.30;99.90;;;;;;5087841;28;20091;-88
2024/02/17 00:20:03;;;;;;;13.63;6.65;;;11.10;99.90;;;;;;5111904;28;20088;-88
2024/02/17 00:22:29;;;;;;;13.88;6.55;;;11.10;99.90;;;;;;5094907;28;20029;-88
2024/02/17 00:25:04;;;;;;;16.00;7.15;;;11.60;99.90;;;;;;5072140;28;20039;-87
2024/02/17 00:27:30;;;;;;;16.30;6.70;;;11.10;99.90;;;;;;5094878;28;20027;-88
2024/02/17 00:29:56;;;;;;;13.32;6.85;;;11.10;99.90;;;;;;5092920;28;20028;-88
2024/02/17 00:32:21;;;;;;;11.98;6.75;;;11.20;99.90;;;;;;5091288;28;20024;-87
2024/02/17 00:34:47;;;;;;;10.43;6.20;;;11.10;99.90;;;;;;5091664;28;20028;-88
2024/02/17 00:37:18;;;;;;;14.60;7.15;;;12.10;99.90;;;;;;5098567;28;20063;-87
2024/02/17 00:39:44;;;;;;;12.23;6.07;;;10.80;99.90;;;;;;5080524;28;20097;-88
2024/02/17 00:42:09;;;;;;;14.15;6.28;;;11.10;99.90;;;;;;5072104;28;20029;-87
2024/02/17 00:44:35;;;;;;;13.55;6.68;;;11.30;99.90;;;;;;5070645;28;20036;-88
2024/02/17 00:47:01;;;;;;;12.43;6.68;;;12.50;99.90;;;;;;5072503;28;20097;-88
2024/02/17 00:49:26;;;;;;;12.75;6.43;;;11.80;99.90;;;;;;5072413;28;20122;-87
2024/02/17 00:52:03;;;;;;;9.73;6.25;;;11.40;99.90;;;;;;5074341;28;20029;-89
2024/02/17 00:54:29;;;;;;;14.20;6.72;;;11.00;99.90;;;;;;5112952;28;20080;-89
2024/02/17 00:56:54;;;;;;;8.38;6.10;;;11.00;99.90;;;;;;5112477;28;20563;-89
2024/02/17 00:59:20;;;;;;;10.18;6.50;;;11.60;99.90;;;;;;5101698;28;20506;-88
2024/02/17 01:01:59;;;;;;;15.52;7.10;;;10.90;99.90;;;;;;5089475;28;20115;-88
2024/02/17 01:04:25;;;;;;;16.33;7.53;;;11.40;99.90;;;;;;5071568;28;20113;-88
2024/02/17 01:06:50;;;;;;;16.25;7.05;;;10.90;99.90;;;;;;5071493;28;20032;-89
2024/02/17 01:09:16;;;;;;;14.35;7.32;;;10.90;99.90;;;;;;5109626;28;20035;-89
2024/02/17 01:11:59;;;;;;;13.35;6.80;;;10.90;99.90;;;;;;5112013;28;20024;-88
2024/02/17 01:14:25;;;;;;;14.05;7.75;;;10.90;99.90;;;;;;5110500;28;20471;-88
2024/02/17 01:16:50;;;;;;;15.35;6.78;;;11.50;99.90;;;;;;5111263;28;20073;-87
2024/02/17 01:19:16;;;;;;;12.73;7.07;;;11.00;99.90;;;;;;5096202;28;20043;-88
2024/02/17 01:21:41;;;;;;;16.40;7.07;;;11.20;99.90;;;;;;5094763;28;20077;-87
2024/02/17 01:24:09;;;;;;;16.35;6.75;;;11.50;99.90;;;;;;5098158;28;20039;-88
2024/02/17 01:26:34;;;;;;;22.10;7.30;;;11.60;99.90;;;;;;5095237;28;20105;-88
2024/02/17 01:29:09;;;;;;;17.08;6.63;;;10.90;99.90;;;;;;5112294;28;20475;-88
2024/02/17 01:31:34;;;;;;;8.82;6.88;;;10.80;99.90;;;;;;5109482;28;20475;-88
2024/02/17 01:34:09;;;;;;;17.30;7.20;;;11.40;99.90;;;;;;5095709;28;20031;-88
2024/02/17 01:36:34;;;;;;;16.33;6.55;;;11.40;99.90;;;;;;5096027;28;20031;-87
2024/02/17 01:39:00;;;;;;;12.35;6.68;;;10.90;99.90;;;;;;5089765;28;20040;-88
2024/02/17 01:41:25;;;;;;;12.68;6.63;;;10.90;99.90;;;;;;5074972;28;20032;-88
2024/02/17 01:43:51;;;;;;;9.48;6.97;;;10.80;99.90;;;;;;5075121;28;20422;-88
2024/02/17 01:46:19;;;;;;;17.52;6.28;;;10.80;99.90;;;;;;5085143;28;20043;-89
2024/02/17 01:48:45;;;;;;;11.90;6.47;;;11.40;99.90;;;;;;5109766;28;20028;-89
2024/02/17 01:51:28;;;;;;;18.50;6.38;;;10.80;99.90;;;;;;5094973;28;20357;-88
2024/02/17 01:53:54;;;;;;;10.73;6.50;;;11.10;99.90;;;;;;5095905;28;20050;-89
2024/02/17 01:56:21;;;;;;;14.98;5.88;;;10.70;99.90;;;;;;5094602;28;20048;-90
2024/02/17 01:58:48;;;;;;;13.43;6.03;;;10.70;99.90;;;;;;5095672;28;20024;-90
2024/02/17 02:01:14;;;;;;;15.95;5.57;;;10.70;99.90;;;;;;5095760;28;20027;-89
2024/02/17 02:03:40;;;;;;;10.73;6.00;;;10.70;99.90;;;;;;5082475;28;20480;-89
2024/02/17 02:06:06;;;;;;;10.50;5.53;;;10.80;99.90;;;;;;5097466;28;20032;-88
2024/02/17 02:08:31;;;;;;;9.98;5.60;;;11.00;99.90;;;;;;5112694;28;20035;-88
2024/02/17 02:11:00;;;;;;;15.90;5.78;;;10.70;99.90;;;;;;5073419;28;20789;-88
2024/02/17 02:13:26;;;;;;;11.77;5.55;;;10.80;99.90;;;;;;5089582;28;20020;-88
2024/02/17 02:15:52;;;;;;;12.05;5.78;;;10.70;99.90;;;;;;5115576;28;20028;-89
2024/02/17 02:18:19;;;;;;;11.52;5.80;;;11.00;99.90;;;;;;5114975;28;20028;-88
2024/02/17 02:20:46;;;;;;;9.00;5.43;;;10.70;99.90;;;;;;5114383;28;20023;-88
2024/02/17 02:23:12;;;;;;;12.07;5.32;;;10.80;99.90;;;;;;5095838;28;20496;-88
2024/02/17 02:25:42;;;;;;;14.57;5.40;;;11.00;99.90;;;;;;5099377;28;20032;-88
2024/02/17 02:28:07;;;;;;;13.23;5.32;;;10.90;99.90;;;;;;5079817;28;20020;-89
2024/02/17 02:30:33;;;;;;;12.80;5.60;;;11.50;99.90;;;;;;5090346;28;20145;-89
2024/02/17 02:32:59;;;;;;;10.32;5.45;;;11.10;99.90;;;;;;5098061;28;20030;-88
2024/02/17 02:35:24;;;;;;;7.97;5.20;;;10.90;99.90;;;;;;5094541;28;20016;-88
2024/02/17 02:37:53;;;;;;;9.70;4.97;;;10.90;99.90;;;;;;5096646;28;20043;-88
2024/02/17 02:40:19;;;;;;;13.40;5.45;;;10.90;99.90;;;;;;5095608;28;20075;-90
2024/02/17 02:42:47;;;;;;;10.35;4.47;;;10.90;99.90;;;;;;5095298;28;20032;-89
2024/02/17 02:45:13;;;;;;;9.98;3.60;;;10.40;99.90;;;;;;5089327;28;20036;-89
2024/02/17 02:47:38;;;;;;;10.25;3.97;;;10.90;99.90;;;;;;5093869;28;20027;-88
2024/02/17 02:50:04;;;;;;;12.45;4.95;;;10.90;99.90;;;;;;5082186;28;20616;-90
2024/02/17 02:52:30;;;;;;;10.43;3.58;;;10.80;99.90;;;;;;5073459;28;20198;-89
2024/02/17 02:54:59;;;;;;;9.50;3.08;;;11.00;99.90;;;;;;5074793;28;20051;-88
2024/02/17 02:57:24;;;;;;;5.60;3.28;;;10.90;99.90;;;;;;5075143;28;20407;-88
2024/02/17 02:59:50;;;;;;;12.30;3.38;;;11.00;99.90;;;;;;5073161;28;20037;-88
2024/02/17 03:02:27;;;;;;;11.48;3.05;;;11.50;99.90;;;;;;5092588;28;20029;-88
2024/02/17 03:04:53;;;;;;;11.45;3.25;;;10.90;99.90;;;;;;5094130;28;20459;-89
2024/02/17 03:07:19;;;;;;;11.52;3.25;;;10.80;99.90;;;;;;5089899;28;20046;-89
2024/02/17 03:09:45;;;;;;;7.47;2.65;;;10.80;99.90;;;;;;5114010;28;20531;-90
2024/02/17 03:12:11;;;;;;;8.32;3.65;;;10.90;99.90;;;;;;5096909;28;20024;-90
2024/02/17 03:14:38;;;;;;;10.75;3.30;;;10.90;99.90;;;;;;5074086;28;20032;-89
2024/02/17 03:17:04;;;;;;;10.32;3.65;;;11.20;99.90;;;;;;5074326;28;20033;-89
2024/02/17 03:19:30;;;;;;;10.23;3.00;;;10.90;99.90;;;;;;5078461;28;20239;-88
2024/02/17 03:21:56;;;;;;;10.18;3.67;;;10.90;99.90;;;;;;5113961;28;20115;-89
2024/02/17 03:24:22;;;;;;;10.43;3.80;;;11.00;99.90;;;;;;5113905;28;20126;-88
2024/02/17 03:26:50;;;;;;;12.48;3.33;;;12.00;99.90;;;;;;5113892;28;20484;-90
2024/02/17 03:29:15;;;;;;;8.90;3.00;;;11.50;99.90;;;;;;5106026;28;20058;-90
2024/02/17 03:31:41;;;;;;;13.43;3.92;;;11.60;99.90;;;;;;5109382;28;20016;-89
2024/02/17 03:34:07;;;;;;;12.32;3.33;;;11.20;99.90;;;;;;5104022;28;20096;-89
2024/02/17 03:36:33;;;;;;;12.20;2.90;;;11.30;99.90;;;;;;5114402;28;20073;-88
2024/02/17 03:38:59;;;;;;;10.50;3.05;;;11.50;99.90;;;;;;5113306;28;20051;-88
2024/02/17 03:41:30;;;;;;;7.70;3.38;;;10.80;99.90;;;;;;5112735;28;20030;-88
2024/02/17 03:43:55;;;;;;;11.60;3.17;;;11.10;99.90;;;;;;5114098;28;20016;-89
2024/02/17 03:46:21;;;;;;;14.90;3.95;;;10.90;99.90;;;;;;5113945;28;20022;-88
2024/02/17 03:48:46;;;;;;;11.20;3.05;;;11.00;99.90;;;;;;5112621;28;20020;-90
2024/02/17 03:51:12;;;;;;;10.98;4.07;;;11.20;99.90;;;;;;5106230;28;20027;-90
2024/02/17 03:53:39;;;;;;;10.00;3.85;;;10.90;99.90;;;;;;5113738;28;20408;-89
2024/02/17 03:56:04;;;;;;;9.18;3.67;;;11.80;99.90;;;;;;5099748;28;20032;-90
2024/02/17 03:58:30;;;;;;;9.63;3.85;;;10.80;99.90;;;;;;5102138;28;20038;-89
2024/02/17 04:00:56;;;;;;;5.80;3.63;;;10.80;99.90;;;;;;5113293;28;20372;-90
2024/02/17 04:03:22;;;;;;;12.30;3.90;;;10.90;99.90;;;;;;5103531;28;20024;-88
2024/02/17 04:05:47;;;;;;;12.05;3.67;;;11.20;99.90;;;;;;5092664;28;20103;-91
2024/02/17 04:08:13;;;;;;;8.40;3.58;;;10.80;99.90;;;;;;5092788;28;20054;-90
2024/02/17 04:10:39;;;;;;;9.10;3.97;;;11.20;99.90;;;;;;5093260;28;20055;-90
2024/02/17 04:13:04;;;;;;;10.52;4.00;;;10.80;99.90;;;;;;5082446;28;20070;-90
2024/02/17 04:15:30;;;;;;;14.48;4.60;;;11.20;99.90;;;;;;5072390;28;20506;-91
2024/02/17 04:17:55;;;;;;;8.90;4.68;;;11.30;99.90;;;;;;5093736;28;20467;-91
2024/02/17 04:20:21;;;;;;;11.07;4.93;;;10.80;99.90;;;;;;5111788;28;20036;-91
2024/02/17 04:22:47;;;;;;;11.60;4.57;;;10.80;99.90;;;;;;5113292;28;20102;-90
2024/02/17 04:25:12;;;;;;;11.80;4.95;;;10.80;99.90;;;;;;5099011;28;20024;-90
2024/02/17 04:27:38;;;;;;;20.00;5.55;;;11.10;99.90;;;;;;5094909;28;20075;-90
2024/02/17 04:30:04;;;;;;;14.73;4.85;;;11.20;99.90;;;;;;5102640;28;20052;-89
2024/02/17 04:32:36;;;;;;;10.27;4.82;;;10.80;99.90;;;;;;5099163;28;20031;-88
2024/02/17 04:35:12;;;;;;;6.13;4.35;;;10.80;99.90;;;;;;5097587;28;20023;-90
2024/02/17 04:37:37;;;;;;;13.20;4.82;;;11.00;99.90;;;;;;5113426;28;20031;-90
2024/02/17 04:40:03;;;;;;;14.48;4.43;;;10.90;99.90;;;;;;5112799;28;20047;-90
2024/02/17 04:42:29;;;;;;;13.68;5.50;;;10.80;99.90;;;;;;5080692;28;20029;-90
2024/02/17 04:44:55;;;;;;;19.27;5.32;;;10.80;99.90;;;;;;5073710;28;20086;-91
2024/02/17 04:47:21;;;;;;;18.98;5.88;;;10.70;99.90;;;;;;5113198;28;20019;-91
2024/02/17 04:49:46;;;;;;;16.23;5.47;;;10.80;99.90;;;;;;5113179;28;20043;-89
2024/02/17 04:52:15;;;;;;;18.85;6.70;;;10.80;99.90;;;;;;5101995;28;20121;-91
2024/02/17 04:54:41;;;;;;;16.98;6.45;;;11.30;99.90;;;;;;5090121;28;20058;-91
2024/02/17 04:57:06;;;;;;;17.25;5.97;;;10.70;99.90;;;;;;5104311;28;20019;-90
2024/02/17 04:59:32;;;;;;;13.85;6.40;;;10.70;99.90;;;;;;5111352;28;20050;-90
2024/02/17 05:01:57;;;;;;;17.60;6.47;;;10.80;99.90;;;;;;5104137;28;20459;-89
2024/02/17 05:04:23;;;;;;;10.88;5.78;;;11.00;99.90;;;;;;5092674;28;20369;-90
2024/02/17 05:06:50;;;;;;;17.70;5.43;;;11.00;99.90;;;;;;5091697;28;20142;-91
2024/02/17 05:09:16;;;;;;;14.18;5.53;;;10.70;99.90;;;;;;5092451;28;20069;-90
2024/02/17 05:11:42;;;;;;;20.33;6.43;;;11.40;99.90;;;;;;5092069;28;20024;-90
2024/02/17 05:14:07;;;;;;;11.73;6.00;;;10.90;99.90;;;;;;5090943;28;20027;-90
2024/02/17 05:16:45;;;;;;;20.63;6.18;;;10.70;99.90;;;;;;5091172;28;20028;-90
2024/02/17 05:19:14;;;;;;;14.82;6.82;;;10.70;99.90;;;;;;5071255;28;20032;-88
2024/02/17 05:21:43;;;;;;;11.65;5.88;;;10.90;99.90;;;;;;5077507;28;20061;-90
2024/02/17 05:24:09;;;;;;;10.75;6.35;;;10.60;99.90;;;;;;5095257;28;20041;-89
2024/02/17 05:26:46;;;;;;;11.18;5.63;;;10.90;99.90;;;;;;5091633;28;20024;-89
2024/02/17 05:29:12;;;;;;;13.98;6.15;;;10.60;99.90;;;;;;5092590;28;20048;-90
2024/02/17 05:31:37;;;;;;;12.90;6.28;;;10.60;99.90;;;;;;5092494;28;20027;-90
2024/02/17 05:34:03;;;;;;;19.25;7.10;;;10.60;99.90;;;;;;5088413;28;20031;-91
2024/02/17 05:36:29;;;;;;;15.32;5.95;;;11.20;99.90;;;;;;5091494;28;20024;-90
2024/02/17 05:38:58;;;;;;;16.58;6.50;;;10.70;99.90;;;;;;5111755;28;20483;-90
2024/02/17 05:41:24;;;;;;;11.93;6.18;;;10.60;99.90;;;;;;5094640;28;20063;-89
2024/02/17 05:43:50;;;;;;;16.77;7.03;;;10.60;99.90;;;;;;5092292;28;20028;-90
2024/02/17 05:46:15;;;;;;;13.63;6.32;;;10.60;99.90;;;;;;5091526;28;20032;-90
2024/02/17 05:48:44;;;;;;;14.75;6.35;;;10.60;99.90;;;;;;5091624;28;20055;-90
2024/02/17 05:51:22;;;;;;;15.15;6.80;;;10.60;99.90;;;;;;5092168;28;20024;-89
2024/02/17 05:53:48;;;;;;;15.32;7.07;;;10.60;99.90;;;;;;5087959;28;20051;-89
2024/02/17 05:56:13;;;;;;;15.15;6.53;;;11.90;99.90;;;;;;5080310;28;20475;-89
2024/02/17 05:58:39;;;;;;;19.08;6.93;;;10.60;99.90;;;;;;5091584;28;20032;-88
2024/02/17 06:01:10;;;;;;;13.93;6.65;;;10.60;99.90;;;;;;5098534;28;20080;-89
2024/02/17 06:03:36;;;;;;;14.75;6.45;;;11.30;99.90;;;;;;5111677;28;20501;-88
2024/02/17 06:06:02;;;;;;;18.80;6.18;;;11.30;99.90;;;;;;5115868;28;20028;-88
2024/02/17 06:08:29;;;;;;;9.73;6.65;;;10.70;99.90;;;;;;5116768;28;20371;-89
2024/02/17 06:10:55;;;;;;;15.07;6.80;;;10.40;99.90;;;;;;5115920;28;20031;-89
2024/02/17 06:13:28;;;;;;;14.98;7.10;;;10.70;99.90;;;;;;5115468;28;20470;-89
2024/02/17 06:15:54;;;;;;;15.40;6.13;;;11.60;99.90;;;;;;5114996;28;20069;-88
2024/02/17 06:21:19;;;;;;;8.30;6.30;;;10.70;99.90;;;;;;5116157;28;20070;-89
2024/02/17 06:23:46;;;;;;;;;;;11.20;99.90;;;;;;5112467;28;20038;-89
2024/02/17 06:26:22;;;;;;;12.38;6.55;;;11.60;99.90;;;;;;5076544;28;19954;-89
2024/02/17 06:28:48;;;;;;;18.90;7.45;;;11.10;99.90;;;;;;5087301;28;20050;-88
2024/02/17 06:31:13;;;;;;;12.35;6.22;;;10.70;99.90;;;;;;5093577;28;20472;-89
2024/02/17 06:33:39;;;;;;;11.55;6.75;;;11.00;99.90;;;;;;5095096;28;20077;-88
2024/02/17 06:36:06;;;;;;;12.85;6.07;;;10.70;99.90;;;;;;5094667;28;20451;-88
2024/02/17 06:38:41;;;;;;;13.38;6.78;;;10.70;99.90;;;;;;5094650;28;20034;-88
2024/02/17 06:41:09;;;;;;;12.82;6.53;;;10.70;99.90;;;;;;5095153;28;20028;-89
2024/02/17 06:43:34;;;;;;;12.75;6.55;;;11.10;99.90;;;;;;5097916;28;20028;-89
2024/02/17 06:46:00;;;;;;;15.32;6.22;;;10.80;99.90;;;;;;5093142;28;20028;-88
2024/02/17 06:48:26;;;;;;;15.77;7.22;;;10.80;99.90;;;;;;5093521;28;20044;-88
2024/02/17 06:51:12;;;;;;;18.48;6.38;;;10.80;99.90;;;;;;5086976;28;20070;-89
2024/02/17 06:53:38;;;;;;;18.35;7.15;;;10.70;99.90;;;;;;5074533;28;20112;-87
2024/02/17 06:56:04;;;;;;;11.75;7.18;;;10.70;99.90;;;;;;5099136;28;20462;-90
2024/02/17 06:58:29;;;;;;;10.77;6.43;;;10.70;99.90;;;;;;5114655;28;20130;-89
2024/02/17 07:01:09;;;;;;;11.75;7.10;;;10.70;99.90;;;;;;5114072;28;20077;-86
2024/02/17 07:03:35;;;;;;;15.95;6.82;;;10.70;99.90;;;;;;5112025;28;20028;-86
2024/02/17 07:06:00;;;;;;;17.85;6.75;;;10.70;99.90;;;;;;5099009;28;20031;-89
2024/02/17 07:08:27;;;;;;;19.48;7.28;;;10.70;99.90;;;;;;5094548;28;20490;-87
2024/02/17 07:10:52;;;;;;;15.95;7.03;;;10.70;99.90;;;;;;5112026;28;20110;-88
2024/02/17 07:13:18;;;;;;;12.43;7.35;;;11.40;99.90;;;;;;5096385;28;20052;-89
2024/02/17 07:15:45;;;;;;;13.48;6.53;;;10.60;99.90;;;;;;5074021;28;20234;-90
2024/02/17 07:18:11;;;;;;;16.10;6.18;;;11.50;99.90;;;;;;5113456;28;20016;-88
2024/02/17 07:20:37;;;;;;;23.80;7.20;;;10.60;99.90;;;;;;5114253;28;20035;-88
2024/02/17 07:23:02;;;;;;;11.98;6.70;;;10.70;99.90;;;;;;5113650;28;20471;-89
2024/02/17 07:25:29;;;;;;;16.33;6.68;;;10.70;99.90;;;;;;5108107;28;20054;-88
2024/02/17 07:28:02;;;;;;;16.75;6.45;;;11.40;99.90;;;;;;5113739;28;20030;-89
2024/02/17 07:30:28;;;;;;;13.25;6.60;;;10.70;99.90;;;;;;5098157;28;20028;-89
2024/02/17 07:32:54;;;;;;;16.25;6.15;;;11.20;99.90;;;;;;5093174;28;20091;-87
2024/02/17 07:35:23;;;;;;;14.25;6.45;;;12.00;99.90;;;;;;5078391;28;20031;-88
2024/02/17 07:37:49;;;;;;;12.98;6.45;;;10.70;99.90;;;;;;5093847;28;20028;-88
2024/02/17 07:40:18;;;;;;;13.43;6.32;;;10.70;99.90;;;;;;5096461;28;20051;-88
2024/02/17 07:42:44;;;;;;;14.65;6.47;;;11.30;99.90;;;;;;5093839;28;20020;-89
2024/02/17 07:45:09;;;;;;;15.57;6.43;;;12.30;99.90;;;;;;5095000;28;20428;-89
2024/02/17 07:47:35;;;;;;;14.27;7.43;;;10.80;99.90;;;;;;5107104;28;20530;-88
2024/02/17 07:50:04;;;;;;;14.50;6.18;;;12.30;99.90;;;;;;5113711;28;20467;-88
2024/02/17 07:52:39;;;;;;;15.73;6.82;;;10.90;99.90;;;;;;5082153;28;20036;-89
2024/02/17 07:55:05;;;;;;;14.88;7.07;;;10.80;99.90;;;;;;5093129;28;20036;-89
2024/02/17 07:57:31;;;;;;;16.25;5.88;;;10.80;99.90;;;;;;5092749;28;20035;-88
2024/02/17 07:59:56;;;;;;;10.73;5.65;;;10.80;99.90;;;;;;5093811;28;20036;-88
2024/02/17 08:02:28;;;;;;;13.90;6.28;;;10.80;99.90;;;;;;5092731;28;20024;-89
2024/02/17 08:04:56;;;;;;;13.45;6.38;;;11.30;99.90;;;;;;5094501;28;20035;-89
2024/02/17 08:07:21;;;;;;;15.45;6.32;;;11.30;99.90;;;;;;5094629;28;20031;-89
2024/02/17 08:09:48;;;;;;;14.55;6.03;;;10.80;99.90;;;;;;5093517;28;20024;-89
2024/02/17 08:12:14;;;;;;;16.17;6.30;;;11.40;99.90;;;;;;5091099;28;20035;-88
2024/02/17 08:14:40;;;;;;;15.43;6.28;;;11.10;99.90;;;;;;5078785;28;20114;-89
2024/02/17 08:17:13;;;;;;;13.13;6.15;;;10.80;99.90;;;;;;5089039;28;20024;-90
2024/02/17 08:19:38;;;;;;;14.02;5.38;;;10.90;99.90;;;;;;5091133;28;20032;-90
2024/02/17 08:22:04;;;;;;;16.15;5.88;;;10.90;99.90;;;;;;5092058;28;20111;-89
2024/02/17 08:24:30;;;;;;;19.48;5.57;;;10.80;99.90;;;;;;5092645;28;20349;-88
2024/02/17 08:26:56;;;;;;;11.90;4.82;;;11.50;99.90;;;;;;5089754;28;20026;-88
2024/02/17 08:29:22;;;;;;;14.38;5.63;;;11.00;99.90;;;;;;5100003;28;20066;-90
2024/02/17 08:31:50;;;;;;;14.68;5.65;;;11.00;99.90;;;;;;5101175;28;20038;-89
2024/02/17 08:34:16;;;;;;;9.77;5.38;;;11.00;99.90;;;;;;5081399;28;20115;-88
2024/02/17 08:36:41;;;;;;;13.23;5.80;;;11.00;99.90;;;;;;5089537;28;20092;-86
2024/02/17 08:39:09;;;;;;;15.60;6.35;;;11.10;99.90;;;;;;5089442;28;20196;-87
2024/02/17 08:41:34;;;;;;;15.85;6.30;;;11.00;99.90;;;;;;5090795;28;20024;-88
2024/02/17 08:44:00;;;;;;;13.43;6.63;;;11.10;99.90;;;;;;5089692;28;20553;-89
2024/02/17 08:46:25;;;;;;;15.13;6.78;;;11.10;99.90;;;;;;5091132;28;20479;-87
2024/02/17 08:48:51;;;;;;;14.57;6.65;;;11.50;99.90;;;;;;5096064;28;20162;-89
2024/02/17 08:51:17;;;;;;;17.25;6.95;;;11.80;99.90;;;;;;5092219;28;20052;-88
2024/02/17 08:53:43;;;;;;;12.55;6.03;;;11.10;99.90;;;;;;5096517;28;20016;-88
2024/02/17 08:56:08;;;;;;;19.75;6.13;;;12.00;99.90;;;;;;5086123;28;20081;-89
2024/02/17 08:58:34;;;;;;;11.57;6.57;;;11.50;99.90;;;;;;5092551;28;20376;-87
2024/02/17 09:01:00;;;;;;;18.50;6.47;;;11.20;99.90;;;;;;5098096;28;20391;-87
2024/02/17 09:03:25;;;;;;;13.25;6.72;;;11.70;99.90;;;;;;5092436;28;20048;-86
2024/02/17 09:05:51;;;;;;;16.90;6.28;;;11.20;99.90;;;;;;5091441;28;20016;-87
2024/02/17 09:08:16;;;;;;;15.75;5.82;;;11.20;99.90;;;;;;5092284;28;20032;-85
2024/02/17 09:10:42;;;;;;;14.02;5.85;;;11.10;99.90;;;;;;5092018;28;20028;-89
2024/02/17 09:13:07;;;;;;;13.27;6.20;;;11.20;99.90;;;;;;5092529;28;20028;-89
2024/02/17 09:15:33;;;;;;;15.18;5.68;;;11.70;99.90;;;;;;5091889;28;20115;-88
2024/02/17 09:18:00;;;;;;;11.43;6.32;;;11.20;99.90;;;;;;5105041;28;20024;-89
2024/02/17 09:20:26;;;;;;;17.60;6.28;;;11.20;99.90;;;;;;5078241;28;20051;-86
2024/02/17 09:22:51;;;;;;;16.45;5.40;;;11.10;99.90;;;;;;5091894;28;20028;-89
2024/02/17 09:25:19;;;;;;;10.45;5.85;;;11.70;99.90;;;;;;5088158;28;20032;-90
2024/02/17 09:27:45;;;;;;;16.13;6.85;;;12.30;99.90;;;;;;5071839;28;20066;-89
2024/02/17 09:30:10;;;;;;;17.23;6.55;;;11.20;99.90;;;;;;5071610;28;20108;-85
2024/02/17 09:32:39;;;;;;;17.58;8.20;;;11.60;99.90;;;;;;5070220;28;20158;-87
2024/02/17 09:35:05;;;;;;;13.00;7.47;;;11.60;99.90;;;;;;5071760;28;20054;-84
2024/02/17 09:37:30;;;;;;;14.88;7.53;;;11.80;99.90;;;;;;5090880;28;20433;-86
2024/02/17 09:40:06;;;;;;;17.25;8.68;;;11.30;99.90;;;;;;5088607;28;20056;-87
2024/02/17 09:42:32;;;;;;;15.15;7.90;;;11.30;99.90;;;;;;5087568;28;20149;-86
2024/02/17 09:44:57;;;;;;;15.45;7.65;;;11.30;99.90;;;;;;5093797;28;20024;-86
2024/02/17 09:47:24;;;;;;;19.05;8.20;;;11.30;99.90;;;;;;5094710;28;20031;-86
2024/02/17 09:49:51;;;;;;;12.90;8.13;;;11.70;99.90;;;;;;5095261;28;20034;-91
2024/02/17 09:52:18;;;;;;;19.30;9.52;;;12.20;99.90;;;;;;5098434;28;20020;-88
2024/02/17 09:54:44;;;;;;;15.93;9.10;;;11.40;99.90;;;;;;5093681;28;20021;-88
2024/02/17 09:57:12;;;;;;;17.67;9.15;;;11.80;99.90;;;;;;5074075;28;20035;-89
2024/02/17 09:59:38;;;;;;;15.20;9.18;;;11.90;99.90;;;;;;5076015;28;20509;-88
2024/02/17 10:02:03;;;;;;;18.42;9.02;;;11.40;99.90;;;;;;5072678;28;20059;-89
2024/02/17 10:04:30;;;;;;;17.67;9.50;;;12.80;99.90;;;;;;5083876;28;20088;-89
2024/02/17 10:07:03;;;;;;;20.65;9.00;;;11.40;99.90;;;;;;5093993;28;20032;-89
2024/02/17 10:09:30;;;;;;;17.42;9.02;;;11.50;99.90;;;;;;5095066;28;20494;-85
2024/02/17 10:11:57;;;;;;;21.75;8.75;;;12.10;99.90;;;;;;5083706;28;20632;-87
2024/02/17 10:14:23;;;;;;;19.73;8.80;;;11.50;99.90;;;;;;5070528;28;20519;-86
2024/02/17 10:16:57;;;;;;;19.67;8.57;;;12.00;99.90;;;;;;5071214;28;20445;-86
2024/02/17 10:19:23;;;;;;;18.38;9.18;;;11.90;99.90;;;;;;5071228;28;20547;-86
2024/02/17 10:21:48;;;;;;;12.68;8.23;;;11.50;99.90;;;;;;5072328;28;20108;-89
2024/02/17 10:24:14;;;;;;;20.45;9.15;;;12.10;99.90;;;;;;5084347;28;20032;-86
2024/02/17 10:26:41;;;;;;;23.02;8.57;;;11.60;99.90;;;;;;5089118;28;20016;-88
2024/02/17 10:29:07;;;;;;;18.42;8.95;;;11.60;99.90;;;;;;5094290;28;20538;-87
2024/02/17 10:31:33;;;;;;;21.33;8.55;;;12.00;99.90;;;;;;5093814;28;20127;-87
2024/02/17 10:33:58;;;;;;;20.45;9.85;;;11.70;99.90;;;;;;5079983;28;20035;-88
2024/02/17 10:36:28;;;;;;;19.92;10.25;;;11.70;99.90;;;;;;5074079;28;20040;-88
2024/02/17 10:38:55;;;;;;;16.58;9.32;;;11.60;99.90;;;;;;5074235;28;20040;-88
2024/02/17 10:41:22;;;;;;;20.05;9.55;;;11.60;99.90;;;;;;5095251;28;20055;-88
2024/02/17 10:43:48;;;;;;;17.13;9.23;;;11.60;99.90;;;;;;5098551;28;20099;-89
2024/02/17 10:46:20;;;;;;;22.55;11.23;;;11.50;99.90;;;;;;5094614;28;20047;-86
2024/02/17 10:49:19;;;;;;;15.57;9.70;;;12.00;99.90;;;;;;5094587;28;20020;-87
2024/02/17 10:52:08;;;;;;;25.33;10.57;;;11.50;99.90;;;;;;5073633;28;20078;-89
2024/02/17 10:54:59;;;;;;;22.23;10.88;;;11.50;99.90;;;;;;5074163;28;20067;-89
2024/02/17 10:57:29;;;;;;;19.02;9.73;;;11.60;99.90;;;;;;5073606;28;20028;-88
2024/02/17 10:59:59;;;;;;;19.67;9.23;;;12.10;99.90;;;;;;5074210;28;20093;-88
2024/02/17 11:02:27;;;;;;;20.67;10.02;;;12.20;99.90;;;;;;5091720;28;20032;-88
2024/02/17 11:04:53;;;;;;;19.85;8.82;;;11.60;99.90;;;;;;5078708;28;20028;-88
2024/02/17 11:07:19;;;;;;;15.13;9.07;;;11.60;99.90;;;;;;5094085;28;20056;-89
2024/02/17 11:09:45;;;;;;;12.48;8.07;;;11.60;99.90;;;;;;5093865;28;20057;-88
2024/02/17 11:12:26;;;;;;;15.48;7.97;;;11.60;99.90;;;;;;5093426;28;20028;-86
2024/02/17 11:15:03;;;;;;;13.50;8.32;;;11.80;99.90;;;;;;5093980;28;20024;-87
2024/02/17 11:17:40;;;;;;;12.77;8.77;;;11.70;99.90;;;;;;5093736;28;20399;-87
2024/02/17 11:20:12;;;;;;;20.90;8.65;;;12.00;99.90;;;;;;5093756;28;20032;-88
2024/02/17 11:22:42;;;;;;;14.95;8.30;;;11.70;99.90;;;;;;5105555;28;20062;-87
2024/02/17 11:25:34;;;;;;;13.75;7.75;;;11.60;99.90;;;;;;5097472;28;20035;-88
2024/02/17 11:28:00;;;;;;;14.98;7.70;;;11.60;99.90;;;;;;5093867;28;20099;-89
2024/02/17 11:30:26;;;;;;;12.98;7.75;;;11.60;99.90;;;;;;5093369;28;20028;-88
2024/02/17 11:33:00;;;;;;;17.65;7.38;;;11.70;99.90;;;;;;5093297;28;20399;-88
2024/02/17 11:35:27;;;;;;;12.27;7.25;;;11.70;99.90;;;;;;5093538;28;20035;-88
2024/02/17 11:37:54;;;;;;;11.90;7.90;;;12.20;99.90;;;;;;5085560;28;20032;-88
2024/02/17 11:40:20;;;;;;;14.85;7.35;;;11.70;99.90;;;;;;5076643;28;20056;-87
2024/02/17 11:42:47;;;;;;;20.48;8.13;;;12.70;99.90;;;;;;5079735;28;20059;-87
2024/02/17 11:45:14;;;;;;;14.43;7.75;;;12.30;99.90;;;;;;5073336;28;20486;-89
2024/02/17 11:47:40;;;;;;;18.67;8.10;;;12.40;99.90;;;;;;5075693;28;20033;-89
2024/02/17 11:50:12;;;;;;;16.45;8.07;;;12.30;99.90;;;;;;5072342;28;20027;-88
2024/02/17 11:52:41;;;;;;;13.65;6.85;;;11.80;99.90;;;;;;5072431;28;20042;-88
2024/02/17 11:55:08;;;;;;;15.45;8.07;;;11.80;99.90;;;;;;5088554;28;20097;-88
2024/02/17 11:57:45;;;;;;;11.07;7.32;;;12.40;99.90;;;;;;5073640;28;20491;-88
2024/02/17 12:00:16;;;;;;;15.48;7.72;;;11.80;99.90;;;;;;5072197;28;20403;-87
2024/02/17 12:02:45;;;;;;;11.70;7.03;;;11.80;99.90;;;;;;5072636;28;20427;-89
2024/02/17 12:05:12;;;;;;;18.00;9.27;;;12.50;99.90;;;;;;5098225;28;20435;-88
2024/02/17 12:07:40;;;;;;;9.68;7.05;;;12.10;99.90;;;;;;5092352;28;20038;-86
2024/02/17 12:10:08;;;;;;;12.57;7.72;;;12.40;99.90;;;;;;5074622;28;20391;-88
2024/02/17 12:12:38;;;;;;;13.50;7.57;;;11.80;99.90;;;;;;5086501;28;20438;-88
2024/02/17 12:15:08;;;;;;;13.45;7.93;;;11.90;99.90;;;;;;5092541;28;20089;-88
2024/02/17 12:17:38;;;;;;;14.70;8.40;;;11.80;99.90;;;;;;5092515;28;20080;-89
2024/02/17 12:20:04;;;;;;;13.65;8.70;;;11.90;99.90;;;;;;5092706;28;20537;-86
2024/02/17 12:22:30;;;;;;;11.70;7.90;;;11.90;99.90;;;;;;5092466;28;20522;-86
2024/02/17 12:24:56;;;;;;;15.95;7.80;;;11.90;99.90;;;;;;5095838;28;20067;-86
2024/02/17 12:27:22;;;;;;;12.15;7.95;;;12.00;99.90;;;;;;5088590;28;20344;-86
2024/02/17 12:29:49;;;;;;;15.05;7.80;;;13.30;99.90;;;;;;5071739;28;20020;-86
2024/02/17 12:32:19;;;;;;;11.52;8.05;;;12.00;99.90;;;;;;5073618;28;20028;-89
2024/02/17 12:34:45;;;;;;;12.05;7.95;;;12.00;99.90;;;;;;5071501;28;20032;-87
2024/02/17 12:37:10;;;;;;;12.75;7.90;;;12.70;99.90;;;;;;5084261;28;20150;-88
2024/02/17 12:39:36;;;;;;;12.82;8.27;;;12.10;99.90;;;;;;5092138;28;20048;-86
2024/02/17 12:42:04;;;;;;;11.25;8.60;;;12.10;99.90;;;;;;5092039;28;20131;-89